sensor_id;sensor_type;location;lat;lon;timestamp;P1;durP1;ratioP1;P2;durP2;ratioP2
60292;SDS011;52402;52.670;6.750;2023-08-21T00:00:21;0.38;;;0.38;;
60292;SDS011;52402;52.670;6.750;2023-08-21T00:02:46;0.38;;;0.38;;
60292;SDS011;52402;52.670;6.750;2023-08-21T00:05:12;0.30;;;0.30;;
60292;SDS011;52402;52.670;6.750;2023-08-21T00:07:38;0.30;;;0.30;;
60292;SDS011;52402;52.670;6.750;2023-08-21T00:10:04;0.40;;;0.40;;
60292;SDS011;52402;52.670;6.750;2023-08-21T00:12:30;0.40;;;0.40;;
60292;SDS011;52402;52.670;6.750;2023-08-21T00:14:55;0.30;;;0.30;;
60292;SDS011;52402;52.670;6.750;2023-08-21T00:17:21;0.30;;;0.30;;
60292;SDS011;52402;52.670;6.750;2023-08-21T00:19:46;0.30;;;0.30;;
60292;SDS011;52402;52.670;6.750;2023-08-21T00:22:12;0.30;;;0.30;;
60292;SDS011;52402;52.670;6.750;2023-08-21T00:24:38;0.30;;;0.30;;
60292;SDS011;52402;52.670;6.750;2023-08-21T00:27:03;0.40;;;0.40;;
60292;SDS011;52402;52.670;6.750;2023-08-21T00:29:29;0.30;;;0.30;;
60292;SDS011;52402;52.670;6.750;2023-08-21T00:31:55;0.30;;;0.30;;
60292;SDS011;52402;52.670;6.750;2023-08-21T00:34:20;0.40;;;0.40;;
60292;SDS011;52402;52.670;6.750;2023-08-21T00:36:46;0.40;;;0.40;;
60292;SDS011;52402;52.670;6.750;2023-08-21T00:39:11;0.30;;;0.30;;
60292;SDS011;52402;52.670;6.750;2023-08-21T00:41:38;0.30;;;0.30;;
60292;SDS011;52402;52.670;6.750;2023-08-21T00:44:03;0.30;;;0.30;;
60292;SDS011;52402;52.670;6.750;2023-08-21T00:46:29;0.40;;;0.40;;
60292;SDS011;52402;52.670;6.750;2023-08-21T00:48:56;0.30;;;0.30;;
60292;SDS011;52402;52.670;6.750;2023-08-21T00:51:23;0.30;;;0.30;;
60292;SDS011;52402;52.670;6.750;2023-08-21T00:53:48;0.38;;;0.38;;
60292;SDS011;52402;52.670;6.750;2023-08-21T00:56:14;0.40;;;0.40;;
60292;SDS011;52402;52.670;6.750;2023-08-21T00:58:40;0.30;;;0.30;;
60292;SDS011;52402;52.670;6.750;2023-08-21T01:01:07;0.30;;;0.30;;
60292;SDS011;52402;52.670;6.750;2023-08-21T01:03:33;0.40;;;0.40;;
60292;SDS011;52402;52.670;6.750;2023-08-21T01:05:58;0.32;;;0.32;;
60292;SDS011;52402;52.670;6.750;2023-08-21T01:11:15;0.30;;;0.30;;
60292;SDS011;52402;52.670;6.750;2023-08-21T01:14:03;0.30;;;0.30;;
60292;SDS011;52402;52.670;6.750;2023-08-21T01:16:37;0.30;;;0.30;;
60292;SDS011;52402;52.670;6.750;2023-08-21T01:19:04;0.30;;;0.30;;
60292;SDS011;52402;52.670;6.750;2023-08-21T01:21:37;0.30;;;0.30;;
60292;SDS011;52402;52.670;6.750;2023-08-21T01:24:02;0.30;;;0.30;;
60292;SDS011;52402;52.670;6.750;2023-08-21T01:26:28;0.30;;;0.30;;
60292;SDS011;52402;52.670;6.750;2023-08-21T01:28:54;0.30;;;0.30;;
60292;SDS011;52402;52.670;6.750;2023-08-21T01:31:26;0.38;;;0.38;;
60292;SDS011;52402;52.670;6.750;2023-08-21T01:34:00;0.30;;;0.30;;
60292;SDS011;52402;52.670;6.750;2023-08-21T01:36:29;0.30;;;0.30;;
60292;SDS011;52402;52.670;6.750;2023-08-21T01:38:56;0.40;;;0.40;;
60292;SDS011;52402;52.670;6.750;2023-08-21T01:41:25;0.30;;;0.30;;
60292;SDS011;52402;52.670;6.750;2023-08-21T01:43:51;0.30;;;0.30;;
60292;SDS011;52402;52.670;6.750;2023-08-21T01:46:17;0.30;;;0.30;;
60292;SDS011;52402;52.670;6.750;2023-08-21T01:48:42;0.40;;;0.40;;
60292;SDS011;52402;52.670;6.750;2023-08-21T01:51:08;0.30;;;0.30;;
60292;SDS011;52402;52.670;6.750;2023-08-21T01:53:34;0.32;;;0.32;;
60292;SDS011;52402;52.670;6.750;2023-08-21T01:55:59;0.30;;;0.30;;
60292;SDS011;52402;52.670;6.750;2023-08-21T01:58:25;0.30;;;0.30;;
60292;SDS011;52402;52.670;6.750;2023-08-21T02:00:51;0.32;;;0.32;;
60292;SDS011;52402;52.670;6.750;2023-08-21T02:03:16;0.30;;;0.30;;
60292;SDS011;52402;52.670;6.750;2023-08-21T02:05:42;0.20;;;0.20;;
60292;SDS011;52402;52.670;6.750;2023-08-21T02:08:09;0.30;;;0.30;;
60292;SDS011;52402;52.670;6.750;2023-08-21T02:10:37;0.30;;;0.30;;
60292;SDS011;52402;52.670;6.750;2023-08-21T02:13:11;0.30;;;0.30;;
60292;SDS011;52402;52.670;6.750;2023-08-21T02:15:36;0.30;;;0.30;;
60292;SDS011;52402;52.670;6.750;2023-08-21T02:18:03;0.30;;;0.30;;
60292;SDS011;52402;52.670;6.750;2023-08-21T02:20:29;0.30;;;0.30;;
60292;SDS011;52402;52.670;6.750;2023-08-21T02:22:54;0.30;;;0.30;;
60292;SDS011;52402;52.670;6.750;2023-08-21T02:25:20;0.30;;;0.30;;
60292;SDS011;52402;52.670;6.750;2023-08-21T02:27:46;0.30;;;0.30;;
60292;SDS011;52402;52.670;6.750;2023-08-21T02:30:11;0.30;;;0.30;;
60292;SDS011;52402;52.670;6.750;2023-08-21T02:32:37;0.30;;;0.30;;
60292;SDS011;52402;52.670;6.750;2023-08-21T02:35:04;0.30;;;0.30;;
60292;SDS011;52402;52.670;6.750;2023-08-21T02:37:31;0.30;;;0.30;;
60292;SDS011;52402;52.670;6.750;2023-08-21T02:39:56;0.35;;;0.35;;
60292;SDS011;52402;52.670;6.750;2023-08-21T02:42:22;0.30;;;0.30;;
60292;SDS011;52402;52.670;6.750;2023-08-21T02:44:48;0.30;;;0.30;;
60292;SDS011;52402;52.670;6.750;2023-08-21T02:47:13;0.30;;;0.30;;
60292;SDS011;52402;52.670;6.750;2023-08-21T02:49:39;0.30;;;0.30;;
60292;SDS011;52402;52.670;6.750;2023-08-21T02:52:04;0.40;;;0.40;;
60292;SDS011;52402;52.670;6.750;2023-08-21T02:54:30;0.30;;;0.30;;
60292;SDS011;52402;52.670;6.750;2023-08-21T02:56:56;0.30;;;0.30;;
60292;SDS011;52402;52.670;6.750;2023-08-21T02:59:21;0.40;;;0.40;;
60292;SDS011;52402;52.670;6.750;2023-08-21T03:01:47;0.30;;;0.30;;
60292;SDS011;52402;52.670;6.750;2023-08-21T03:04:13;0.30;;;0.30;;
60292;SDS011;52402;52.670;6.750;2023-08-21T03:06:38;0.30;;;0.30;;
60292;SDS011;52402;52.670;6.750;2023-08-21T03:09:04;0.30;;;0.30;;
60292;SDS011;52402;52.670;6.750;2023-08-21T03:11:29;0.30;;;0.30;;
60292;SDS011;52402;52.670;6.750;2023-08-21T03:13:55;0.40;;;0.40;;
60292;SDS011;52402;52.670;6.750;2023-08-21T03:16:21;0.28;;;0.28;;
60292;SDS011;52402;52.670;6.750;2023-08-21T03:18:59;0.30;;;0.30;;
60292;SDS011;52402;52.670;6.750;2023-08-21T03:21:25;0.30;;;0.30;;
60292;SDS011;52402;52.670;6.750;2023-08-21T03:23:53;0.32;;;0.32;;
60292;SDS011;52402;52.670;6.750;2023-08-21T03:26:20;0.30;;;0.30;;
60292;SDS011;52402;52.670;6.750;2023-08-21T03:28:46;0.30;;;0.30;;
60292;SDS011;52402;52.670;6.750;2023-08-21T03:31:11;0.30;;;0.30;;
60292;SDS011;52402;52.670;6.750;2023-08-21T03:33:37;0.30;;;0.30;;
60292;SDS011;52402;52.670;6.750;2023-08-21T03:36:03;0.30;;;0.30;;
60292;SDS011;52402;52.670;6.750;2023-08-21T03:38:28;0.38;;;0.38;;
60292;SDS011;52402;52.670;6.750;2023-08-21T03:40:54;0.30;;;0.30;;
60292;SDS011;52402;52.670;6.750;2023-08-21T03:43:20;0.40;;;0.40;;
60292;SDS011;52402;52.670;6.750;2023-08-21T03:45:45;0.30;;;0.30;;
60292;SDS011;52402;52.670;6.750;2023-08-21T03:48:11;0.30;;;0.30;;
60292;SDS011;52402;52.670;6.750;2023-08-21T03:50:38;0.40;;;0.40;;
60292;SDS011;52402;52.670;6.750;2023-08-21T03:53:04;0.30;;;0.30;;
60292;SDS011;52402;52.670;6.750;2023-08-21T03:55:29;0.30;;;0.30;;
60292;SDS011;52402;52.670;6.750;2023-08-21T03:57:55;0.38;;;0.38;;
60292;SDS011;52402;52.670;6.750;2023-08-21T04:00:21;0.30;;;0.30;;
60292;SDS011;52402;52.670;6.750;2023-08-21T04:02:47;0.30;;;0.30;;
60292;SDS011;52402;52.670;6.750;2023-08-21T04:05:12;0.30;;;0.30;;
60292;SDS011;52402;52.670;6.750;2023-08-21T04:07:38;0.30;;;0.30;;
60292;SDS011;52402;52.670;6.750;2023-08-21T04:10:05;0.30;;;0.30;;
60292;SDS011;52402;52.670;6.750;2023-08-21T04:12:31;0.30;;;0.30;;
60292;SDS011;52402;52.670;6.750;2023-08-21T04:14:56;0.30;;;0.30;;
60292;SDS011;52402;52.670;6.750;2023-08-21T04:17:22;0.28;;;0.28;;
60292;SDS011;52402;52.670;6.750;2023-08-21T04:19:48;0.30;;;0.30;;
60292;SDS011;52402;52.670;6.750;2023-08-21T04:22:14;0.30;;;0.30;;
60292;SDS011;52402;52.670;6.750;2023-08-21T04:24:40;0.28;;;0.28;;
60292;SDS011;52402;52.670;6.750;2023-08-21T04:27:06;0.30;;;0.30;;
60292;SDS011;52402;52.670;6.750;2023-08-21T04:29:32;0.30;;;0.30;;
60292;SDS011;52402;52.670;6.750;2023-08-21T04:31:58;0.30;;;0.30;;
60292;SDS011;52402;52.670;6.750;2023-08-21T04:34:23;0.30;;;0.30;;
60292;SDS011;52402;52.670;6.750;2023-08-21T04:36:49;0.30;;;0.30;;
60292;SDS011;52402;52.670;6.750;2023-08-21T04:39:14;0.28;;;0.28;;
60292;SDS011;52402;52.670;6.750;2023-08-21T04:41:41;0.20;;;0.20;;
60292;SDS011;52402;52.670;6.750;2023-08-21T04:44:07;0.30;;;0.30;;
60292;SDS011;52402;52.670;6.750;2023-08-21T04:46:33;0.30;;;0.30;;
60292;SDS011;52402;52.670;6.750;2023-08-21T04:48:58;0.20;;;0.20;;
60292;SDS011;52402;52.670;6.750;2023-08-21T04:51:24;0.30;;;0.30;;
60292;SDS011;52402;52.670;6.750;2023-08-21T04:53:50;0.28;;;0.28;;
60292;SDS011;52402;52.670;6.750;2023-08-21T04:56:15;0.30;;;0.30;;
60292;SDS011;52402;52.670;6.750;2023-08-21T04:58:41;0.30;;;0.30;;
60292;SDS011;52402;52.670;6.750;2023-08-21T05:01:06;0.30;;;0.30;;
60292;SDS011;52402;52.670;6.750;2023-08-21T05:03:32;0.25;;;0.25;;
60292;SDS011;52402;52.670;6.750;2023-08-21T05:05:58;0.20;;;0.20;;
60292;SDS011;52402;52.670;6.750;2023-08-21T05:08:24;0.30;;;0.30;;
60292;SDS011;52402;52.670;6.750;2023-08-21T05:10:57;0.28;;;0.28;;
60292;SDS011;52402;52.670;6.750;2023-08-21T05:13:23;0.30;;;0.30;;
60292;SDS011;52402;52.670;6.750;2023-08-21T05:15:54;0.20;;;0.20;;
60292;SDS011;52402;52.670;6.750;2023-08-21T05:18:23;0.30;;;0.30;;
60292;SDS011;52402;52.670;6.750;2023-08-21T05:20:50;0.32;;;0.32;;
60292;SDS011;52402;52.670;6.750;2023-08-21T05:23:16;0.30;;;0.30;;
60292;SDS011;52402;52.670;6.750;2023-08-21T05:25:42;0.30;;;0.30;;
60292;SDS011;52402;52.670;6.750;2023-08-21T05:28:10;0.30;;;0.30;;
60292;SDS011;52402;52.670;6.750;2023-08-21T05:30:36;0.30;;;0.30;;
60292;SDS011;52402;52.670;6.750;2023-08-21T05:33:02;0.30;;;0.30;;
60292;SDS011;52402;52.670;6.750;2023-08-21T05:35:28;0.32;;;0.32;;
60292;SDS011;52402;52.670;6.750;2023-08-21T05:37:57;0.20;;;0.20;;
60292;SDS011;52402;52.670;6.750;2023-08-21T05:40:23;0.30;;;0.30;;
60292;SDS011;52402;52.670;6.750;2023-08-21T05:42:48;0.30;;;0.30;;
60292;SDS011;52402;52.670;6.750;2023-08-21T05:45:14;0.25;;;0.25;;
60292;SDS011;52402;52.670;6.750;2023-08-21T05:47:40;0.28;;;0.28;;
60292;SDS011;52402;52.670;6.750;2023-08-21T05:50:05;0.30;;;0.30;;
60292;SDS011;52402;52.670;6.750;2023-08-21T05:52:31;0.30;;;0.30;;
60292;SDS011;52402;52.670;6.750;2023-08-21T05:54:57;0.30;;;0.30;;
60292;SDS011;52402;52.670;6.750;2023-08-21T05:57:23;0.40;;;0.40;;
60292;SDS011;52402;52.670;6.750;2023-08-21T05:59:48;0.20;;;0.20;;
60292;SDS011;52402;52.670;6.750;2023-08-21T06:02:14;0.30;;;0.30;;
60292;SDS011;52402;52.670;6.750;2023-08-21T06:04:40;0.40;;;0.40;;
60292;SDS011;52402;52.670;6.750;2023-08-21T06:07:06;0.40;;;0.40;;
60292;SDS011;52402;52.670;6.750;2023-08-21T06:09:33;0.30;;;0.30;;
60292;SDS011;52402;52.670;6.750;2023-08-21T06:12:02;0.40;;;0.40;;
60292;SDS011;52402;52.670;6.750;2023-08-21T06:14:28;0.30;;;0.30;;
60292;SDS011;52402;52.670;6.750;2023-08-21T06:16:58;0.30;;;0.30;;
60292;SDS011;52402;52.670;6.750;2023-08-21T06:19:25;0.30;;;0.30;;
60292;SDS011;52402;52.670;6.750;2023-08-21T06:21:50;0.25;;;0.25;;
60292;SDS011;52402;52.670;6.750;2023-08-21T06:24:16;0.35;;;0.35;;
60292;SDS011;52402;52.670;6.750;2023-08-21T06:26:42;0.30;;;0.30;;
60292;SDS011;52402;52.670;6.750;2023-08-21T06:29:07;0.30;;;0.30;;
60292;SDS011;52402;52.670;6.750;2023-08-21T06:31:33;0.25;;;0.25;;
60292;SDS011;52402;52.670;6.750;2023-08-21T06:33:58;0.30;;;0.30;;
60292;SDS011;52402;52.670;6.750;2023-08-21T06:36:24;0.30;;;0.30;;
60292;SDS011;52402;52.670;6.750;2023-08-21T06:38:50;0.30;;;0.30;;
60292;SDS011;52402;52.670;6.750;2023-08-21T06:41:15;0.20;;;0.20;;
60292;SDS011;52402;52.670;6.750;2023-08-21T06:43:41;0.30;;;0.30;;
60292;SDS011;52402;52.670;6.750;2023-08-21T06:46:07;0.30;;;0.30;;
60292;SDS011;52402;52.670;6.750;2023-08-21T06:48:33;0.30;;;0.30;;
60292;SDS011;52402;52.670;6.750;2023-08-21T06:51:01;0.22;;;0.22;;
60292;SDS011;52402;52.670;6.750;2023-08-21T06:53:27;0.30;;;0.30;;
60292;SDS011;52402;52.670;6.750;2023-08-21T06:55:53;0.30;;;0.30;;
60292;SDS011;52402;52.670;6.750;2023-08-21T06:58:19;0.30;;;0.30;;
60292;SDS011;52402;52.670;6.750;2023-08-21T07:00:45;0.30;;;0.30;;
60292;SDS011;52402;52.670;6.750;2023-08-21T07:03:11;0.30;;;0.30;;
60292;SDS011;52402;52.670;6.750;2023-08-21T07:05:37;0.30;;;0.30;;
60292;SDS011;52402;52.670;6.750;2023-08-21T07:08:02;0.30;;;0.30;;
60292;SDS011;52402;52.670;6.750;2023-08-21T07:10:28;0.30;;;0.30;;
60292;SDS011;52402;52.670;6.750;2023-08-21T07:12:54;0.25;;;0.25;;
60292;SDS011;52402;52.670;6.750;2023-08-21T07:15:20;0.30;;;0.30;;
60292;SDS011;52402;52.670;6.750;2023-08-21T07:17:46;0.30;;;0.30;;
60292;SDS011;52402;52.670;6.750;2023-08-21T07:20:12;0.30;;;0.30;;
60292;SDS011;52402;52.670;6.750;2023-08-21T07:22:37;0.20;;;0.20;;
60292;SDS011;52402;52.670;6.750;2023-08-21T07:25:03;0.30;;;0.30;;
60292;SDS011;52402;52.670;6.750;2023-08-21T07:27:30;0.30;;;0.30;;
60292;SDS011;52402;52.670;6.750;2023-08-21T07:29:56;0.30;;;0.30;;
60292;SDS011;52402;52.670;6.750;2023-08-21T07:32:22;0.40;;;0.40;;
60292;SDS011;52402;52.670;6.750;2023-08-21T07:34:49;0.30;;;0.30;;
60292;SDS011;52402;52.670;6.750;2023-08-21T07:37:18;0.30;;;0.30;;
60292;SDS011;52402;52.670;6.750;2023-08-21T07:39:43;0.30;;;0.30;;
60292;SDS011;52402;52.670;6.750;2023-08-21T07:42:11;0.30;;;0.30;;
60292;SDS011;52402;52.670;6.750;2023-08-21T07:44:38;0.30;;;0.30;;
60292;SDS011;52402;52.670;6.750;2023-08-21T07:47:04;0.40;;;0.40;;
60292;SDS011;52402;52.670;6.750;2023-08-21T07:49:30;0.40;;;0.40;;
60292;SDS011;52402;52.670;6.750;2023-08-21T07:51:57;0.30;;;0.30;;
60292;SDS011;52402;52.670;6.750;2023-08-21T07:54:22;0.40;;;0.40;;
60292;SDS011;52402;52.670;6.750;2023-08-21T07:56:49;0.30;;;0.30;;
60292;SDS011;52402;52.670;6.750;2023-08-21T07:59:15;0.30;;;0.30;;
60292;SDS011;52402;52.670;6.750;2023-08-21T08:01:40;0.35;;;0.35;;
60292;SDS011;52402;52.670;6.750;2023-08-21T08:04:06;0.30;;;0.30;;
60292;SDS011;52402;52.670;6.750;2023-08-21T08:06:32;0.30;;;0.30;;
60292;SDS011;52402;52.670;6.750;2023-08-21T08:08:58;0.40;;;0.40;;
60292;SDS011;52402;52.670;6.750;2023-08-21T08:11:24;0.30;;;0.30;;
60292;SDS011;52402;52.670;6.750;2023-08-21T08:13:49;0.40;;;0.40;;
60292;SDS011;52402;52.670;6.750;2023-08-21T08:16:15;0.30;;;0.30;;
60292;SDS011;52402;52.670;6.750;2023-08-21T08:18:41;0.30;;;0.30;;
60292;SDS011;52402;52.670;6.750;2023-08-21T08:21:07;0.30;;;0.30;;
60292;SDS011;52402;52.670;6.750;2023-08-21T08:23:34;0.40;;;0.40;;
60292;SDS011;52402;52.670;6.750;2023-08-21T08:25:59;0.40;;;0.40;;
60292;SDS011;52402;52.670;6.750;2023-08-21T08:28:25;0.43;;;0.43;;
60292;SDS011;52402;52.670;6.750;2023-08-21T08:30:51;0.40;;;0.40;;
60292;SDS011;52402;52.670;6.750;2023-08-21T08:33:17;0.32;;;0.32;;
60292;SDS011;52402;52.670;6.750;2023-08-21T08:35:42;0.30;;;0.30;;
60292;SDS011;52402;52.670;6.750;2023-08-21T08:38:08;0.40;;;0.40;;
60292;SDS011;52402;52.670;6.750;2023-08-21T08:40:35;0.40;;;0.40;;
60292;SDS011;52402;52.670;6.750;2023-08-21T08:43:08;0.40;;;0.40;;
60292;SDS011;52402;52.670;6.750;2023-08-21T08:45:34;0.32;;;0.32;;
60292;SDS011;52402;52.670;6.750;2023-08-21T08:48:01;0.40;;;0.40;;
60292;SDS011;52402;52.670;6.750;2023-08-21T08:50:31;0.30;;;0.30;;
60292;SDS011;52402;52.670;6.750;2023-08-21T08:52:58;0.40;;;0.40;;
60292;SDS011;52402;52.670;6.750;2023-08-21T08:55:24;0.40;;;0.40;;
60292;SDS011;52402;52.670;6.750;2023-08-21T08:57:51;0.40;;;0.40;;
60292;SDS011;52402;52.670;6.750;2023-08-21T09:00:20;0.40;;;0.40;;
60292;SDS011;52402;52.670;6.750;2023-08-21T09:02:47;0.40;;;0.40;;
60292;SDS011;52402;52.670;6.750;2023-08-21T09:05:13;0.50;;;0.50;;
60292;SDS011;52402;52.670;6.750;2023-08-21T09:07:38;0.40;;;0.40;;
60292;SDS011;52402;52.670;6.750;2023-08-21T09:10:04;0.40;;;0.40;;
60292;SDS011;52402;52.670;6.750;2023-08-21T09:12:37;0.40;;;0.40;;
60292;SDS011;52402;52.670;6.750;2023-08-21T09:15:07;0.40;;;0.40;;
60292;SDS011;52402;52.670;6.750;2023-08-21T09:17:33;0.45;;;0.45;;
60292;SDS011;52402;52.670;6.750;2023-08-21T09:20:06;0.40;;;0.40;;
60292;SDS011;52402;52.670;6.750;2023-08-21T09:22:33;0.40;;;0.40;;
60292;SDS011;52402;52.670;6.750;2023-08-21T09:25:07;0.40;;;0.40;;
60292;SDS011;52402;52.670;6.750;2023-08-21T09:27:34;0.50;;;0.50;;
60292;SDS011;52402;52.670;6.750;2023-08-21T09:30:03;0.40;;;0.40;;
60292;SDS011;52402;52.670;6.750;2023-08-21T09:32:29;0.50;;;0.50;;
60292;SDS011;52402;52.670;6.750;2023-08-21T09:34:55;0.50;;;0.50;;
60292;SDS011;52402;52.670;6.750;2023-08-21T09:37:23;0.40;;;0.40;;
60292;SDS011;52402;52.670;6.750;2023-08-21T09:39:54;0.50;;;0.50;;
60292;SDS011;52402;52.670;6.750;2023-08-21T09:42:25;0.50;;;0.50;;
60292;SDS011;52402;52.670;6.750;2023-08-21T09:44:51;0.50;;;0.50;;
60292;SDS011;52402;52.670;6.750;2023-08-21T09:47:17;0.40;;;0.40;;
60292;SDS011;52402;52.670;6.750;2023-08-21T09:49:44;0.40;;;0.40;;
60292;SDS011;52402;52.670;6.750;2023-08-21T09:52:09;0.50;;;0.50;;
60292;SDS011;52402;52.670;6.750;2023-08-21T09:54:36;0.43;;;0.43;;
60292;SDS011;52402;52.670;6.750;2023-08-21T09:57:03;0.50;;;0.50;;
60292;SDS011;52402;52.670;6.750;2023-08-21T09:59:32;0.50;;;0.50;;
60292;SDS011;52402;52.670;6.750;2023-08-21T10:01:58;0.50;;;0.50;;
60292;SDS011;52402;52.670;6.750;2023-08-21T10:04:30;0.60;;;0.60;;
60292;SDS011;52402;52.670;6.750;2023-08-21T10:09:25;0.50;;;0.50;;
60292;SDS011;52402;52.670;6.750;2023-08-21T10:11:53;0.40;;;0.40;;
60292;SDS011;52402;52.670;6.750;2023-08-21T10:14:20;0.50;;;0.50;;
60292;SDS011;52402;52.670;6.750;2023-08-21T10:16:47;0.52;;;0.52;;
60292;SDS011;52402;52.670;6.750;2023-08-21T10:19:16;0.50;;;0.50;;
60292;SDS011;52402;52.670;6.750;2023-08-21T10:21:45;0.50;;;0.50;;
60292;SDS011;52402;52.670;6.750;2023-08-21T10:24:13;0.50;;;0.50;;
60292;SDS011;52402;52.670;6.750;2023-08-21T10:26:58;0.50;;;0.50;;
60292;SDS011;52402;52.670;6.750;2023-08-21T10:29:24;0.70;;;0.70;;
60292;SDS011;52402;52.670;6.750;2023-08-21T10:32:01;0.50;;;0.50;;
60292;SDS011;52402;52.670;6.750;2023-08-21T10:34:34;0.63;;;0.63;;
60292;SDS011;52402;52.670;6.750;2023-08-21T10:39:35;0.63;;;0.63;;
60292;SDS011;52402;52.670;6.750;2023-08-21T10:47:20;0.60;;;0.60;;
60292;SDS011;52402;52.670;6.750;2023-08-21T10:49:57;0.77;;;0.77;;
60292;SDS011;52402;52.670;6.750;2023-08-21T10:55:03;0.80;;;0.80;;
60292;SDS011;52402;52.670;6.750;2023-08-21T10:57:30;0.70;;;0.70;;
60292;SDS011;52402;52.670;6.750;2023-08-21T11:02:24;0.80;;;0.80;;
60292;SDS011;52402;52.670;6.750;2023-08-21T11:04:51;0.70;;;0.70;;
60292;SDS011;52402;52.670;6.750;2023-08-21T11:07:17;0.70;;;0.70;;
60292;SDS011;52402;52.670;6.750;2023-08-21T11:09:43;0.80;;;0.80;;
60292;SDS011;52402;52.670;6.750;2023-08-21T11:12:10;0.90;;;0.90;;
60292;SDS011;52402;52.670;6.750;2023-08-21T11:14:38;0.82;;;0.82;;
60292;SDS011;52402;52.670;6.750;2023-08-21T11:17:04;0.80;;;0.80;;
60292;SDS011;52402;52.670;6.750;2023-08-21T11:19:31;0.77;;;0.77;;
60292;SDS011;52402;52.670;6.750;2023-08-21T11:21:57;0.93;;;0.93;;
60292;SDS011;52402;52.670;6.750;2023-08-21T11:24:39;0.80;;;0.80;;
60292;SDS011;52402;52.670;6.750;2023-08-21T11:27:09;0.90;;;0.90;;
60292;SDS011;52402;52.670;6.750;2023-08-21T11:29:41;1.00;;;1.00;;
60292;SDS011;52402;52.670;6.750;2023-08-21T11:32:09;0.80;;;0.80;;
60292;SDS011;52402;52.670;6.750;2023-08-21T11:34:39;0.93;;;0.93;;
60292;SDS011;52402;52.670;6.750;2023-08-21T11:37:06;1.00;;;1.00;;
60292;SDS011;52402;52.670;6.750;2023-08-21T11:44:58;1.00;;;1.00;;
60292;SDS011;52402;52.670;6.750;2023-08-21T11:47:30;1.40;;;1.30;;
60292;SDS011;52402;52.670;6.750;2023-08-21T11:50:01;0.90;;;0.90;;
60292;SDS011;52402;52.670;6.750;2023-08-21T11:52:31;1.05;;;1.05;;
60292;SDS011;52402;52.670;6.750;2023-08-21T11:54:57;1.20;;;1.20;;
60292;SDS011;52402;52.670;6.750;2023-08-21T11:57:23;1.00;;;1.00;;
60292;SDS011;52402;52.670;6.750;2023-08-21T11:59:49;1.40;;;1.30;;
60292;SDS011;52402;52.670;6.750;2023-08-21T12:02:17;1.38;;;1.27;;
60292;SDS011;52402;52.670;6.750;2023-08-21T12:07:32;1.10;;;1.10;;
60292;SDS011;52402;52.670;6.750;2023-08-21T12:09:59;1.20;;;1.20;;
60292;SDS011;52402;52.670;6.750;2023-08-21T12:12:24;1.50;;;1.40;;
60292;SDS011;52402;52.670;6.750;2023-08-21T12:14:50;1.40;;;1.30;;
60292;SDS011;52402;52.670;6.750;2023-08-21T12:17:16;1.27;;;1.20;;
60292;SDS011;52402;52.670;6.750;2023-08-21T12:19:42;1.40;;;1.30;;
60292;SDS011;52402;52.670;6.750;2023-08-21T12:22:08;1.15;;;1.15;;
60292;SDS011;52402;52.670;6.750;2023-08-21T12:24:34;1.33;;;1.23;;
60292;SDS011;52402;52.670;6.750;2023-08-21T12:27:02;1.60;;;1.50;;
60292;SDS011;52402;52.670;6.750;2023-08-21T12:29:28;1.40;;;1.30;;
60292;SDS011;52402;52.670;6.750;2023-08-21T12:31:53;1.60;;;1.50;;
60292;SDS011;52402;52.670;6.750;2023-08-21T12:34:19;1.70;;;1.60;;
60292;SDS011;52402;52.670;6.750;2023-08-21T12:36:45;1.38;;;1.30;;
60292;SDS011;52402;52.670;6.750;2023-08-21T12:39:11;1.40;;;1.30;;
60292;SDS011;52402;52.670;6.750;2023-08-21T12:41:37;1.52;;;1.42;;
60292;SDS011;52402;52.670;6.750;2023-08-21T12:44:02;1.85;;;1.75;;
60292;SDS011;52402;52.670;6.750;2023-08-21T12:46:28;1.60;;;1.50;;
60292;SDS011;52402;52.670;6.750;2023-08-21T12:48:55;1.88;;;1.77;;
60292;SDS011;52402;52.670;6.750;2023-08-21T12:51:21;1.52;;;1.42;;
60292;SDS011;52402;52.670;6.750;2023-08-21T12:53:48;1.90;;;1.80;;
60292;SDS011;52402;52.670;6.750;2023-08-21T12:56:13;1.70;;;1.60;;
60292;SDS011;52402;52.670;6.750;2023-08-21T12:58:39;1.77;;;1.67;;
60292;SDS011;52402;52.670;6.750;2023-08-21T13:01:04;1.65;;;1.55;;
60292;SDS011;52402;52.670;6.750;2023-08-21T13:03:30;1.80;;;1.70;;
60292;SDS011;52402;52.670;6.750;2023-08-21T13:05:57;2.00;;;1.90;;
60292;SDS011;52402;52.670;6.750;2023-08-21T13:08:23;1.50;;;1.40;;
60292;SDS011;52402;52.670;6.750;2023-08-21T13:10:49;1.60;;;1.50;;
60292;SDS011;52402;52.670;6.750;2023-08-21T13:13:14;1.77;;;1.67;;
60292;SDS011;52402;52.670;6.750;2023-08-21T13:15:40;1.65;;;1.55;;
60292;SDS011;52402;52.670;6.750;2023-08-21T13:18:09;1.88;;;1.77;;
60292;SDS011;52402;52.670;6.750;2023-08-21T13:20:35;2.00;;;1.90;;
60292;SDS011;52402;52.670;6.750;2023-08-21T13:23:00;1.70;;;1.60;;
60292;SDS011;52402;52.670;6.750;2023-08-21T13:25:26;1.85;;;1.75;;
60292;SDS011;52402;52.670;6.750;2023-08-21T13:27:52;1.70;;;1.60;;
60292;SDS011;52402;52.670;6.750;2023-08-21T13:30:18;1.80;;;1.70;;
60292;SDS011;52402;52.670;6.750;2023-08-21T13:32:45;1.92;;;1.83;;
60292;SDS011;52402;52.670;6.750;2023-08-21T13:35:11;2.10;;;2.00;;
60292;SDS011;52402;52.670;6.750;2023-08-21T13:37:37;2.00;;;1.90;;
60292;SDS011;52402;52.670;6.750;2023-08-21T13:40:03;2.08;;;1.98;;
60292;SDS011;52402;52.670;6.750;2023-08-21T13:42:39;1.92;;;1.83;;
60292;SDS011;52402;52.670;6.750;2023-08-21T13:45:09;1.77;;;1.67;;
60292;SDS011;52402;52.670;6.750;2023-08-21T13:47:40;2.13;;;2.03;;
60292;SDS011;52402;52.670;6.750;2023-08-21T13:50:07;2.00;;;1.90;;
60292;SDS011;52402;52.670;6.750;2023-08-21T13:52:34;1.95;;;1.85;;
60292;SDS011;52402;52.670;6.750;2023-08-21T13:55:01;2.00;;;1.90;;
60292;SDS011;52402;52.670;6.750;2023-08-21T13:57:30;1.90;;;1.80;;
60292;SDS011;52402;52.670;6.750;2023-08-21T13:59:58;1.80;;;1.70;;
60292;SDS011;52402;52.670;6.750;2023-08-21T14:02:25;1.80;;;1.70;;
60292;SDS011;52402;52.670;6.750;2023-08-21T14:04:50;1.90;;;1.80;;
60292;SDS011;52402;52.670;6.750;2023-08-21T14:07:16;1.90;;;1.80;;
60292;SDS011;52402;52.670;6.750;2023-08-21T14:09:42;1.98;;;1.88;;
60292;SDS011;52402;52.670;6.750;2023-08-21T14:12:07;2.17;;;2.08;;
60292;SDS011;52402;52.670;6.750;2023-08-21T14:14:34;1.83;;;1.73;;
60292;SDS011;52402;52.670;6.750;2023-08-21T14:17:00;2.00;;;1.90;;
60292;SDS011;52402;52.670;6.750;2023-08-21T14:19:26;1.98;;;1.88;;
60292;SDS011;52402;52.670;6.750;2023-08-21T14:21:53;1.80;;;1.70;;
60292;SDS011;52402;52.670;6.750;2023-08-21T14:24:19;1.80;;;1.70;;
60292;SDS011;52402;52.670;6.750;2023-08-21T14:26:45;1.85;;;1.75;;
60292;SDS011;52402;52.670;6.750;2023-08-21T14:29:11;2.00;;;1.90;;
60292;SDS011;52402;52.670;6.750;2023-08-21T14:31:36;1.88;;;1.77;;
60292;SDS011;52402;52.670;6.750;2023-08-21T14:34:02;2.03;;;1.92;;
60292;SDS011;52402;52.670;6.750;2023-08-21T14:36:27;1.73;;;1.63;;
60292;SDS011;52402;52.670;6.750;2023-08-21T14:38:53;1.95;;;1.85;;
60292;SDS011;52402;52.670;6.750;2023-08-21T14:41:19;1.80;;;1.70;;
60292;SDS011;52402;52.670;6.750;2023-08-21T14:43:44;2.17;;;2.08;;
60292;SDS011;52402;52.670;6.750;2023-08-21T14:46:10;1.88;;;1.77;;
60292;SDS011;52402;52.670;6.750;2023-08-21T14:48:36;2.00;;;1.90;;
60292;SDS011;52402;52.670;6.750;2023-08-21T14:51:02;1.80;;;1.70;;
60292;SDS011;52402;52.670;6.750;2023-08-21T14:53:29;1.85;;;1.75;;
60292;SDS011;52402;52.670;6.750;2023-08-21T14:55:55;1.80;;;1.70;;
60292;SDS011;52402;52.670;6.750;2023-08-21T14:58:22;1.70;;;1.60;;
60292;SDS011;52402;52.670;6.750;2023-08-21T15:00:48;1.92;;;1.83;;
60292;SDS011;52402;52.670;6.750;2023-08-21T15:03:14;1.70;;;1.60;;
60292;SDS011;52402;52.670;6.750;2023-08-21T15:05:40;1.60;;;1.50;;
60292;SDS011;52402;52.670;6.750;2023-08-21T15:08:05;1.80;;;1.70;;
60292;SDS011;52402;52.670;6.750;2023-08-21T15:10:31;1.67;;;1.58;;